Time;durP1;ratioP1;P1;durP2;ratioP2;P2;SDS_P1;SDS_P2;PMS_P1;PMS_P2;Temp;Humidity;BMP_temperature;BMP_pressure;BME280_temperature;BME280_humidity;BME280_pressure;Samples;Min_cycle;Max_cycle;Signal;HPM_P1;HPM_P2
2023/08/29 00:01:44;;;;;;;1.20;0.70;;;;;;;;;;4981520;28;20460;-58
2023/08/29 00:04:14;;;;;;;1.90;0.70;;;;;;;;;;4984497;28;20146;-58
2023/08/29 00:06:42;;;;;;;0.90;0.57;;;;;;;;;;4981025;28;20066;-58
2023/08/29 00:09:12;;;;;;;1.75;0.80;;;;;;;;;;4985090;28;20462;-58
2023/08/29 00:11:41;;;;;;;1.90;0.80;;;;;;;;;;4982788;28;20070;-62
2023/08/29 00:14:10;;;;;;;0.50;0.50;;;;;;;;;;4981950;28;20134;-59
2023/08/29 00:16:38;;;;;;;0.82;0.77;;;;;;;;;;4983590;28;20483;-58
2023/08/29 00:19:06;;;;;;;1.10;0.70;;;;;;;;;;4982084;28;20069;-58
2023/08/29 00:21:35;;;;;;;1.13;0.90;;;;;;;;;;4981309;28;20054;-58
2023/08/29 00:24:03;;;;;;;0.98;0.80;;;;;;;;;;4984672;28;20055;-59
2023/08/29 00:26:33;;;;;;;1.15;0.70;;;;;;;;;;4979789;28;20511;-60
2023/08/29 00:29:01;;;;;;;0.80;0.50;;;;;;;;;;4980678;28;20048;-58
2023/08/29 00:31:30;;;;;;;3.63;0.80;;;;;;;;;;4978166;28;20681;-59
2023/08/29 00:33:58;;;;;;;2.53;0.68;;;;;;;;;;4982520;28;20432;-58
2023/08/29 00:36:26;;;;;;;1.05;0.82;;;;;;;;;;4980525;28;20782;-58
2023/08/29 00:38:55;;;;;;;1.00;0.90;;;;;;;;;;4984981;28;20050;-58
2023/08/29 00:41:23;;;;;;;1.00;0.90;;;;;;;;;;4981708;28;20077;-58
2023/08/29 00:43:53;;;;;;;1.00;0.80;;;;;;;;;;4983000;28;20382;-58
2023/08/29 00:46:21;;;;;;;4.07;1.00;;;;;;;;;;4979221;28;20555;-59
2023/08/29 00:48:50;;;;;;;2.30;1.38;;;;;;;;;;4983163;28;20050;-58
2023/08/29 00:51:18;;;;;;;1.65;1.30;;;;;;;;;;4983049;28;20129;-57
2023/08/29 00:53:47;;;;;;;1.73;1.10;;;;;;;;;;4984843;28;20195;-58
2023/08/29 00:56:17;;;;;;;1.77;1.20;;;;;;;;;;4983197;28;20538;-58
2023/08/29 00:58:46;;;;;;;1.10;0.80;;;;;;;;;;4980648;28;20050;-58
2023/08/29 01:01:16;;;;;;;3.50;1.38;;;;;;;;;;4978386;28;20067;-58
2023/08/29 01:03:46;;;;;;;1.33;1.08;;;;;;;;;;5032456;23;20077;-64
2023/08/29 01:06:15;;;;;;;1.27;0.95;;;;;;;;;;5023874;28;20045;-63
2023/08/29 01:08:44;;;;;;;1.15;1.02;;;;;;;;;;5021938;28;20092;-69
2023/08/29 01:11:17;;;;;;;1.02;0.80;;;;;;;;;;5025099;28;20527;-64
2023/08/29 01:13:47;;;;;;;1.00;0.75;;;;;;;;;;5023647;28;20507;-64
2023/08/29 01:16:19;;;;;;;2.95;0.90;;;;;;;;;;5023077;28;20512;-64
2023/08/29 01:18:48;;;;;;;1.40;1.10;;;;;;;;;;5021474;28;20519;-63
2023/08/29 01:21:19;;;;;;;1.17;0.90;;;;;;;;;;5022449;28;20077;-65
2023/08/29 01:23:52;;;;;;;1.05;0.73;;;;;;;;;;5023997;28;20686;-66
2023/08/29 01:26:22;;;;;;;1.50;0.80;;;;;;;;;;5021323;28;20749;-68
2023/08/29 01:28:51;;;;;;;1.65;1.00;;;;;;;;;;5023186;28;20054;-64
2023/08/29 01:31:21;;;;;;;0.85;0.77;;;;;;;;;;5022261;28;20131;-64
2023/08/29 01:33:49;;;;;;;1.42;0.70;;;;;;;;;;5019047;28;20099;-68
2023/08/29 01:36:17;;;;;;;0.65;0.63;;;;;;;;;;5022578;28;20487;-63
2023/08/29 01:38:46;;;;;;;1.50;0.88;;;;;;;;;;5021383;28;20045;-67
2023/08/29 01:41:14;;;;;;;0.70;0.70;;;;;;;;;;5023371;28;20051;-63
2023/08/29 01:43:44;;;;;;;1.08;0.75;;;;;;;;;;5024231;28;20129;-63
2023/08/29 01:46:12;;;;;;;1.58;0.70;;;;;;;;;;5017967;28;20106;-64
2023/08/29 01:48:41;;;;;;;0.70;0.70;;;;;;;;;;5021610;28;20053;-65
2023/08/29 01:51:09;;;;;;;3.85;0.98;;;;;;;;;;5023852;28;20069;-64
2023/08/29 01:53:38;;;;;;;1.08;0.70;;;;;;;;;;5028203;28;20482;-65
2023/08/29 01:56:09;;;;;;;1.00;0.90;;;;;;;;;;5028446;28;20128;-63
2023/08/29 01:58:37;;;;;;;1.05;0.77;;;;;;;;;;5024746;28;20069;-63
2023/08/29 02:01:07;;;;;;;1.25;0.82;;;;;;;;;;5023116;28;20041;-65
2023/08/29 02:03:51;;;;;;;0.80;0.73;;;;;;;;;;5027909;28;20196;-66
2023/08/29 02:06:19;;;;;;;0.85;0.60;;;;;;;;;;5027446;28;20041;-63
2023/08/29 02:08:48;;;;;;;0.73;0.70;;;;;;;;;;5027402;28;20494;-64
2023/08/29 02:11:16;;;;;;;1.65;0.93;;;;;;;;;;5028248;28;20131;-65
2023/08/29 02:13:44;;;;;;;1.60;0.90;;;;;;;;;;5025758;28;20056;-64
2023/08/29 02:16:14;;;;;;;2.42;0.70;;;;;;;;;;5024534;28;20049;-63
2023/08/29 02:18:42;;;;;;;0.60;0.60;;;;;;;;;;5027444;28;20048;-66
2023/08/29 02:21:10;;;;;;;1.05;0.98;;;;;;;;;;5023819;28;20065;-64
2023/08/29 02:23:39;;;;;;;0.70;0.70;;;;;;;;;;5024132;28;20140;-65
2023/08/29 02:26:07;;;;;;;4.47;1.00;;;;;;;;;;5024503;28;20050;-64
2023/08/29 02:28:38;;;;;;;0.80;0.80;;;;;;;;;;5025385;28;20494;-64
2023/08/29 02:31:08;;;;;;;1.25;0.95;;;;;;;;;;5026554;28;20045;-64
2023/08/29 02:33:38;;;;;;;1.10;0.85;;;;;;;;;;5026832;28;20038;-65
2023/08/29 02:36:07;;;;;;;1.35;0.90;;;;;;;;;;5025290;28;20132;-63
2023/08/29 02:38:35;;;;;;;1.15;0.90;;;;;;;;;;5025656;28;20123;-63
2023/08/29 02:41:04;;;;;;;0.90;0.80;;;;;;;;;;5025375;28;20065;-64
2023/08/29 02:43:32;;;;;;;1.25;0.80;;;;;;;;;;5027825;28;20411;-63
2023/08/29 02:46:00;;;;;;;1.20;0.90;;;;;;;;;;5027451;28;20041;-65
2023/08/29 02:48:29;;;;;;;1.20;0.90;;;;;;;;;;5024933;28;21804;-65
2023/08/29 02:50:58;;;;;;;4.80;0.82;;;;;;;;;;5025844;28;20111;-64
2023/08/29 02:53:27;;;;;;;0.80;0.80;;;;;;;;;;5024977;28;20152;-64
2023/08/29 02:55:55;;;;;;;1.02;0.70;;;;;;;;;;5026805;28;20128;-67
2023/08/29 02:58:24;;;;;;;3.13;0.90;;;;;;;;;;5026036;28;20762;-64
2023/08/29 03:00:57;;;;;;;1.45;0.85;;;;;;;;;;5021392;28;20050;-64
2023/08/29 03:03:26;;;;;;;0.80;0.73;;;;;;;;;;5023346;28;20143;-64
2023/08/29 03:05:55;;;;;;;1.02;0.82;;;;;;;;;;5025392;28;20518;-64
2023/08/29 03:08:25;;;;;;;0.77;0.68;;;;;;;;;;5024737;28;20060;-64
2023/08/29 03:10:53;;;;;;;1.58;1.00;;;;;;;;;;5023862;28;20099;-66
2023/08/29 03:13:22;;;;;;;1.85;0.73;;;;;;;;;;5024126;28;20084;-64
2023/08/29 03:15:51;;;;;;;0.82;0.70;;;;;;;;;;5025045;28;20138;-64
2023/08/29 03:18:19;;;;;;;1.40;0.90;;;;;;;;;;5025475;28;20294;-64
2023/08/29 03:20:48;;;;;;;0.90;0.75;;;;;;;;;;5024323;28;20120;-64
2023/08/29 03:23:17;;;;;;;1.17;0.70;;;;;;;;;;5024799;28;20250;-66
2023/08/29 03:25:47;;;;;;;0.80;0.60;;;;;;;;;;5023238;28;20837;-64
2023/08/29 03:28:15;;;;;;;1.05;0.75;;;;;;;;;;5023719;28;20050;-65
2023/08/29 03:30:45;;;;;;;1.55;0.88;;;;;;;;;;5025084;28;20115;-63
2023/08/29 03:33:13;;;;;;;0.65;0.47;;;;;;;;;;5023420;28;20145;-63
2023/08/29 03:35:41;;;;;;;0.88;0.70;;;;;;;;;;5024505;28;20057;-64
2023/08/29 03:38:10;;;;;;;0.60;0.60;;;;;;;;;;5025606;28;20126;-68
2023/08/29 03:40:38;;;;;;;0.80;0.60;;;;;;;;;;5023980;28;20045;-67
2023/08/29 03:43:08;;;;;;;1.20;0.80;;;;;;;;;;5024117;28;20072;-65
2023/08/29 03:45:37;;;;;;;0.88;0.80;;;;;;;;;;5022386;28;20109;-65
2023/08/29 03:48:05;;;;;;;2.05;1.20;;;;;;;;;;5022458;28;20049;-65
2023/08/29 03:50:43;;;;;;;1.48;1.00;;;;;;;;;;5025098;28;20095;-64
2023/08/29 03:53:11;;;;;;;1.83;0.90;;;;;;;;;;5023351;28;20738;-65
2023/08/29 03:55:39;;;;;;;1.70;0.77;;;;;;;;;;5024378;28;20057;-63
2023/08/29 03:58:09;;;;;;;1.58;1.05;;;;;;;;;;5025670;28;20467;-63
2023/08/29 04:00:38;;;;;;;1.52;0.77;;;;;;;;;;5021808;28;20081;-66
2023/08/29 04:03:06;;;;;;;1.65;1.10;;;;;;;;;;5023765;28;20068;-64
2023/08/29 04:05:36;;;;;;;1.02;0.70;;;;;;;;;;5023447;28;20568;-64
2023/08/29 04:08:06;;;;;;;1.30;0.93;;;;;;;;;;5022388;28;20052;-64
2023/08/29 04:10:38;;;;;;;0.90;0.73;;;;;;;;;;5024057;28;20055;-65
2023/08/29 04:13:07;;;;;;;0.80;0.77;;;;;;;;;;5025023;28;20262;-68
2023/08/29 04:15:37;;;;;;;0.90;0.73;;;;;;;;;;5025826;28;20050;-63
2023/08/29 04:18:07;;;;;;;0.90;0.85;;;;;;;;;;5019400;28;20855;-64
2023/08/29 04:20:36;;;;;;;1.30;0.70;;;;;;;;;;5020260;28;20048;-64
2023/08/29 04:23:07;;;;;;;1.25;0.80;;;;;;;;;;5022500;28;20303;-66
2023/08/29 04:25:36;;;;;;;0.77;0.70;;;;;;;;;;5021756;28;20049;-63
2023/08/29 04:28:05;;;;;;;1.40;0.80;;;;;;;;;;5022862;28;20471;-64
2023/08/29 04:30:35;;;;;;;0.90;0.80;;;;;;;;;;5024064;28;20449;-63
2023/08/29 04:33:06;;;;;;;1.35;0.95;;;;;;;;;;5023326;28;20084;-63
2023/08/29 04:35:35;;;;;;;0.82;0.80;;;;;;;;;;5023070;28;20080;-64
2023/08/29 04:38:03;;;;;;;0.90;0.73;;;;;;;;;;5022512;28;20103;-65
2023/08/29 04:40:32;;;;;;;0.93;0.70;;;;;;;;;;5022812;28;20069;-64
2023/08/29 04:43:01;;;;;;;1.00;0.73;;;;;;;;;;5023223;28;20702;-68
2023/08/29 04:45:29;;;;;;;1.23;0.90;;;;;;;;;;5022796;28;20480;-64
2023/08/29 04:47:57;;;;;;;0.93;0.70;;;;;;;;;;5018262;28;20037;-63
2023/08/29 04:50:29;;;;;;;1.02;0.80;;;;;;;;;;5020439;28;20054;-65
2023/08/29 04:52:57;;;;;;;1.27;0.90;;;;;;;;;;5020905;28;20057;-64
2023/08/29 04:55:26;;;;;;;2.55;1.10;;;;;;;;;;5022706;28;20132;-63
2023/08/29 04:57:56;;;;;;;1.20;0.82;;;;;;;;;;5021125;28;20473;-63
2023/08/29 05:00:24;;;;;;;1.73;1.25;;;;;;;;;;5023075;28;20073;-64
2023/08/29 05:02:53;;;;;;;1.30;0.90;;;;;;;;;;5023841;28;20057;-63
2023/08/29 05:05:21;;;;;;;1.30;0.95;;;;;;;;;;5023252;28;20050;-63
2023/08/29 05:07:51;;;;;;;1.27;1.10;;;;;;;;;;5024317;28;20057;-64
2023/08/29 05:10:19;;;;;;;1.15;0.70;;;;;;;;;;5022208;28;20068;-63
2023/08/29 05:12:47;;;;;;;0.80;0.63;;;;;;;;;;5021493;28;20215;-64
2023/08/29 05:15:16;;;;;;;0.85;0.70;;;;;;;;;;5022921;28;20076;-64
2023/08/29 05:17:44;;;;;;;4.65;0.77;;;;;;;;;;5021367;28;20124;-65
2023/08/29 05:20:13;;;;;;;0.55;0.50;;;;;;;;;;5024009;28;20052;-66
2023/08/29 05:22:41;;;;;;;0.93;0.70;;;;;;;;;;5022371;28;20832;-67
2023/08/29 05:25:11;;;;;;;0.55;0.50;;;;;;;;;;5023511;28;20077;-63
2023/08/29 05:27:39;;;;;;;0.60;0.50;;;;;;;;;;5019447;28;20045;-66
2023/08/29 05:30:09;;;;;;;0.70;0.52;;;;;;;;;;5024952;28;20053;-67
2023/08/29 05:32:38;;;;;;;0.90;0.70;;;;;;;;;;5020949;28;20049;-65
2023/08/29 05:35:07;;;;;;;1.17;0.70;;;;;;;;;;5022834;28;20060;-64
2023/08/29 05:37:36;;;;;;;1.55;0.60;;;;;;;;;;5021129;28;20045;-64
2023/08/29 05:40:06;;;;;;;0.80;0.60;;;;;;;;;;5020449;28;20045;-67
2023/08/29 05:42:35;;;;;;;1.33;0.90;;;;;;;;;;5018194;28;20056;-66
2023/08/29 05:45:04;;;;;;;3.33;0.50;;;;;;;;;;5021980;28;20049;-63
2023/08/29 05:47:32;;;;;;;1.05;0.68;;;;;;;;;;5020941;28;20462;-65
2023/08/29 05:50:01;;;;;;;0.73;0.60;;;;;;;;;;5019057;28;20080;-64
2023/08/29 05:52:29;;;;;;;1.42;1.02;;;;;;;;;;5019073;28;20069;-63
2023/08/29 05:54:57;;;;;;;2.25;0.82;;;;;;;;;;5021398;28;20057;-64
2023/08/29 05:57:26;;;;;;;2.75;0.70;;;;;;;;;;5024027;28;20085;-64
2023/08/29 05:59:55;;;;;;;0.82;0.63;;;;;;;;;;5021247;28;20877;-64
2023/08/29 06:02:24;;;;;;;2.30;0.68;;;;;;;;;;5019471;28;20465;-65
2023/08/29 06:04:53;;;;;;;0.82;0.57;;;;;;;;;;5022916;28;20158;-65
2023/08/29 06:07:21;;;;;;;1.00;0.70;;;;;;;;;;5022748;28;20119;-64
2023/08/29 06:09:50;;;;;;;1.50;0.75;;;;;;;;;;5020502;28;20103;-65
2023/08/29 06:12:18;;;;;;;1.67;0.75;;;;;;;;;;5023262;28;20297;-67
2023/08/29 06:14:46;;;;;;;1.77;0.85;;;;;;;;;;5022943;28;20073;-64
2023/08/29 06:17:16;;;;;;;1.23;0.70;;;;;;;;;;5023374;28;20045;-66
2023/08/29 06:19:45;;;;;;;1.63;1.00;;;;;;;;;;5020956;28;20115;-65
2023/08/29 06:22:13;;;;;;;2.28;0.90;;;;;;;;;;5022912;28;20120;-63
2023/08/29 06:24:42;;;;;;;1.70;0.68;;;;;;;;;;5023710;28;20038;-63
2023/08/29 06:27:11;;;;;;;1.17;0.50;;;;;;;;;;5022848;28;20568;-66
2023/08/29 06:29:39;;;;;;;1.20;0.73;;;;;;;;;;5023143;28;20077;-66
2023/08/29 06:32:08;;;;;;;2.22;0.65;;;;;;;;;;5023871;28;20053;-66
2023/08/29 06:34:38;;;;;;;2.75;0.70;;;;;;;;;;5023323;28;20474;-65
2023/08/29 06:37:06;;;;;;;0.77;0.50;;;;;;;;;;5022705;28;20129;-65
2023/08/29 06:39:35;;;;;;;0.95;0.70;;;;;;;;;;5019338;28;20073;-64
2023/08/29 06:42:03;;;;;;;1.30;0.80;;;;;;;;;;5026970;28;20046;-64
2023/08/29 06:44:31;;;;;;;1.33;0.70;;;;;;;;;;5026517;28;20053;-64
2023/08/29 06:47:00;;;;;;;1.30;0.75;;;;;;;;;;5027379;28;20076;-65
2023/08/29 06:49:28;;;;;;;1.17;0.85;;;;;;;;;;5026726;28;20498;-64
2023/08/29 06:51:58;;;;;;;0.80;0.77;;;;;;;;;;5025834;28;20107;-63
2023/08/29 06:54:28;;;;;;;0.95;0.70;;;;;;;;;;5025278;28;20057;-65
2023/08/29 06:56:59;;;;;;;4.13;0.80;;;;;;;;;;5024391;28;20123;-65
2023/08/29 06:59:27;;;;;;;1.17;0.60;;;;;;;;;;5024242;28;20045;-63
2023/08/29 07:01:56;;;;;;;0.85;0.60;;;;;;;;;;5024162;28;20049;-64
2023/08/29 07:04:24;;;;;;;1.50;0.88;;;;;;;;;;5026434;28;20136;-63
2023/08/29 07:06:52;;;;;;;2.22;0.80;;;;;;;;;;5024563;28;20099;-63
2023/08/29 07:09:22;;;;;;;2.42;0.68;;;;;;;;;;5023847;28;20417;-63
2023/08/29 07:11:50;;;;;;;0.85;0.60;;;;;;;;;;5024275;28;20134;-65
2023/08/29 07:14:19;;;;;;;1.45;0.90;;;;;;;;;;5025612;28;20077;-64
2023/08/29 07:16:47;;;;;;;0.55;0.50;;;;;;;;;;5026387;28;20053;-65
2023/08/29 07:19:36;;;;;;;0.50;0.45;;;;;;;;;;5021383;28;20048;-67
2023/08/29 07:22:04;;;;;;;1.23;0.70;;;;;;;;;;5025605;28;20045;-64
2023/08/29 07:24:52;;;;;;;0.68;0.60;;;;;;;;;;5025849;28;20040;-65
2023/08/29 07:27:21;;;;;;;1.30;0.77;;;;;;;;;;5025100;28;20072;-64
2023/08/29 07:29:49;;;;;;;0.90;0.60;;;;;;;;;;5022222;28;20060;-67
2023/08/29 07:32:18;;;;;;;1.13;0.73;;;;;;;;;;5021072;28;20103;-67
2023/08/29 07:34:46;;;;;;;0.73;0.60;;;;;;;;;;5022982;28;20561;-66
2023/08/29 07:37:14;;;;;;;0.80;0.60;;;;;;;;;;5019454;28;20053;-69
2023/08/29 07:39:43;;;;;;;1.70;0.55;;;;;;;;;;5020236;28;20073;-65
2023/08/29 07:42:13;;;;;;;0.32;0.32;;;;;;;;;;5023719;28;20096;-65
2023/08/29 07:44:41;;;;;;;0.63;0.43;;;;;;;;;;5025520;28;20564;-66
2023/08/29 07:47:10;;;;;;;1.15;0.50;;;;;;;;;;5022096;28;20657;-68
2023/08/29 07:49:43;;;;;;;0.55;0.47;;;;;;;;;;5019778;28;21185;-67
2023/08/29 07:52:11;;;;;;;0.65;0.50;;;;;;;;;;5018437;28;20045;-65
2023/08/29 07:54:40;;;;;;;1.15;0.77;;;;;;;;;;5018211;28;20132;-70
2023/08/29 07:57:08;;;;;;;0.93;0.55;;;;;;;;;;5019034;28;20516;-70
2023/08/29 07:59:38;;;;;;;0.63;0.57;;;;;;;;;;5017974;28;20544;-67
2023/08/29 08:02:07;;;;;;;1.15;0.80;;;;;;;;;;5019044;28;20065;-66
2023/08/29 08:04:36;;;;;;;1.25;0.63;;;;;;;;;;5018222;28;20160;-64
2023/08/29 08:07:05;;;;;;;0.73;0.60;;;;;;;;;;5016933;28;20050;-65
2023/08/29 08:09:34;;;;;;;0.88;0.70;;;;;;;;;;5019768;28;20125;-68
2023/08/29 08:12:02;;;;;;;2.15;0.95;;;;;;;;;;5019481;28;20085;-64
2023/08/29 08:14:30;;;;;;;1.58;0.70;;;;;;;;;;5023990;28;20049;-65
2023/08/29 08:17:00;;;;;;;0.68;0.57;;;;;;;;;;5017046;28;20084;-65
2023/08/29 08:19:29;;;;;;;0.65;0.60;;;;;;;;;;5019640;28;20521;-65
2023/08/29 08:21:57;;;;;;;1.15;0.68;;;;;;;;;;5020388;28;20059;-65
2023/08/29 08:24:26;;;;;;;0.77;0.60;;;;;;;;;;5022097;28;20570;-64
2023/08/29 08:26:54;;;;;;;1.00;0.57;;;;;;;;;;5024406;28;20147;-66
2023/08/29 08:29:23;;;;;;;0.73;0.60;;;;;;;;;;5012834;28;20282;-66
2023/08/29 08:31:51;;;;;;;0.70;0.65;;;;;;;;;;5013813;28;20053;-66
2023/08/29 08:34:21;;;;;;;1.15;0.60;;;;;;;;;;5022809;28;20441;-66
2023/08/29 08:36:50;;;;;;;1.05;0.95;;;;;;;;;;5020411;28;21785;-66
2023/08/29 08:39:18;;;;;;;0.73;0.50;;;;;;;;;;5021577;28;20114;-65
2023/08/29 08:41:47;;;;;;;1.40;0.60;;;;;;;;;;5020227;28;20081;-67
2023/08/29 08:44:16;;;;;;;0.70;0.63;;;;;;;;;;5022102;28;20064;-67
2023/08/29 08:46:45;;;;;;;0.50;0.40;;;;;;;;;;5021313;28;20569;-65
2023/08/29 08:49:14;;;;;;;0.98;0.40;;;;;;;;;;5017795;28;20413;-66
2023/08/29 08:51:44;;;;;;;1.30;0.60;;;;;;;;;;5019889;28;20073;-66
2023/08/29 08:54:13;;;;;;;0.70;0.57;;;;;;;;;;5019289;28;20045;-66
2023/08/29 08:56:42;;;;;;;0.80;0.50;;;;;;;;;;5020640;28;20502;-67
2023/08/29 08:59:10;;;;;;;0.40;0.40;;;;;;;;;;5015596;28;20045;-67
2023/08/29 09:01:39;;;;;;;4.00;0.50;;;;;;;;;;5018736;28;20046;-64
2023/08/29 09:04:07;;;;;;;0.77;0.50;;;;;;;;;;5019087;28;20041;-65
2023/08/29 09:06:38;;;;;;;0.57;0.50;;;;;;;;;;5019165;28;20053;-65
2023/08/29 09:09:23;;;;;;;0.82;0.43;;;;;;;;;;5024365;28;20049;-67
2023/08/29 09:11:54;;;;;;;0.38;0.38;;;;;;;;;;5022303;28;20076;-63
2023/08/29 09:14:23;;;;;;;0.63;0.40;;;;;;;;;;5023213;28;20045;-66
2023/08/29 09:16:54;;;;;;;0.90;0.50;;;;;;;;;;5025416;28;20049;-68
2023/08/29 09:19:23;;;;;;;1.17;0.60;;;;;;;;;;5024281;28;20131;-65
2023/08/29 09:21:51;;;;;;;0.68;0.40;;;;;;;;;;5021477;28;20107;-65
2023/08/29 09:24:33;;;;;;;1.00;0.60;;;;;;;;;;5021879;28;20123;-65
2023/08/29 09:27:01;;;;;;;0.40;0.40;;;;;;;;;;5020552;28;20553;-65
2023/08/29 09:29:31;;;;;;;0.85;0.60;;;;;;;;;;5019961;28;20095;-64
2023/08/29 09:32:00;;;;;;;0.47;0.40;;;;;;;;;;5024460;28;20461;-67
2023/08/29 09:34:29;;;;;;;1.40;0.57;;;;;;;;;;5019527;28;20056;-68
2023/08/29 09:36:58;;;;;;;0.75;0.50;;;;;;;;;;5017318;28;20399;-66
2023/08/29 09:39:28;;;;;;;0.75;0.50;;;;;;;;;;5020226;28;20052;-65
2023/08/29 09:42:01;;;;;;;1.17;0.40;;;;;;;;;;5023263;28;20060;-64
2023/08/29 09:44:30;;;;;;;1.50;0.40;;;;;;;;;;5019950;28;20063;-66
2023/08/29 09:46:59;;;;;;;1.25;0.32;;;;;;;;;;5019384;28;20123;-64
2023/08/29 09:49:32;;;;;;;1.98;0.50;;;;;;;;;;5021002;28;20049;-64
2023/08/29 09:52:02;;;;;;;0.75;0.52;;;;;;;;;;5023151;28;20065;-64
2023/08/29 09:54:32;;;;;;;0.22;0.22;;;;;;;;;;5019472;28;20061;-65
2023/08/29 09:57:06;;;;;;;0.20;0.20;;;;;;;;;;5019617;28;20551;-63
2023/08/29 09:59:36;;;;;;;1.45;0.40;;;;;;;;;;5020237;28;20149;-66
2023/08/29 10:02:06;;;;;;;0.35;0.30;;;;;;;;;;5020268;28;20129;-66
2023/08/29 10:04:36;;;;;;;0.13;0.10;;;;;;;;;;5021487;28;20119;-65
2023/08/29 10:07:06;;;;;;;0.20;0.20;;;;;;;;;;5024381;28;20432;-65
2023/08/29 10:09:35;;;;;;;0.10;0.10;;;;;;;;;;5021737;28;20085;-65
2023/08/29 10:12:05;;;;;;;0.38;0.30;;;;;;;;;;5021715;28;20077;-64
2023/08/29 10:14:35;;;;;;;0.80;0.20;;;;;;;;;;5027015;28;20156;-64
2023/08/29 10:17:04;;;;;;;0.20;0.20;;;;;;;;;;5021774;28;20045;-65
2023/08/29 10:19:42;;;;;;;0.32;0.20;;;;;;;;;;5020801;28;20041;-65
2023/08/29 10:22:12;;;;;;;0.20;0.20;;;;;;;;;;5022652;28;20477;-65
2023/08/29 10:24:42;;;;;;;0.30;0.20;;;;;;;;;;5023893;28;20449;-63
2023/08/29 10:27:11;;;;;;;0.95;0.25;;;;;;;;;;5026570;28;20103;-64
2023/08/29 10:29:40;;;;;;;0.40;0.15;;;;;;;;;;5021889;28;20041;-63
2023/08/29 10:32:09;;;;;;;0.60;0.30;;;;;;;;;;5023603;28;20457;-65
2023/08/29 10:34:37;;;;;;;1.45;0.30;;;;;;;;;;5024873;28;20045;-64
2023/08/29 10:37:06;;;;;;;0.30;0.30;;;;;;;;;;5019672;28;20494;-68
2023/08/29 10:39:34;;;;;;;0.65;0.52;;;;;;;;;;5021804;28;20138;-65
2023/08/29 10:42:03;;;;;;;1.00;0.50;;;;;;;;;;5017349;28;20496;-64
2023/08/29 10:44:36;;;;;;;2.63;0.50;;;;;;;;;;5026685;28;20050;-65
2023/08/29 10:47:19;;;;;;;0.60;0.60;;;;;;;;;;5024047;28;20057;-67
2023/08/29 10:49:48;;;;;;;0.77;0.47;;;;;;;;;;5022651;28;20049;-65
2023/08/29 10:52:18;;;;;;;5.88;0.50;;;;;;;;;;5023558;28;20064;-68
2023/08/29 10:54:47;;;;;;;0.63;0.40;;;;;;;;;;5024426;28;20049;-64
2023/08/29 10:57:28;;;;;;;0.57;0.50;;;;;;;;;;5025490;28;20045;-65
2023/08/29 10:59:58;;;;;;;0.90;0.45;;;;;;;;;;5022248;28;20482;-67
2023/08/29 11:02:27;;;;;;;0.82;0.60;;;;;;;;;;5023268;28;20122;-64
2023/08/29 11:05:15;;;;;;;0.70;0.57;;;;;;;;;;5025443;28;20136;-66
2023/08/29 11:07:44;;;;;;;0.88;0.60;;;;;;;;;;5021993;28;20123;-65
2023/08/29 11:10:16;;;;;;;0.57;0.43;;;;;;;;;;5026069;28;20070;-66
2023/08/29 11:13:03;;;;;;;0.57;0.43;;;;;;;;;;5022640;28;20115;-65
2023/08/29 11:15:50;;;;;;;3.40;0.60;;;;;;;;;;5020839;28;20415;-65
2023/08/29 11:18:29;;;;;;;1.75;0.50;;;;;;;;;;5024324;28;20064;-64
2023/08/29 11:21:00;;;;;;;0.70;0.45;;;;;;;;;;5026045;28;20045;-64
2023/08/29 11:23:29;;;;;;;0.47;0.40;;;;;;;;;;5025784;28;20130;-64
2023/08/29 11:25:58;;;;;;;0.40;0.40;;;;;;;;;;5021393;28;20502;-64
2023/08/29 11:28:26;;;;;;;0.68;0.65;;;;;;;;;;5025754;28;20465;-65
2023/08/29 11:30:55;;;;;;;0.70;0.50;;;;;;;;;;5020558;28;20552;-66
2023/08/29 11:33:30;;;;;;;0.80;0.50;;;;;;;;;;5025153;28;20056;-64
2023/08/29 11:35:59;;;;;;;0.40;0.40;;;;;;;;;;5025201;28;20464;-65
2023/08/29 11:38:29;;;;;;;0.47;0.47;;;;;;;;;;5023574;28;20049;-66
2023/08/29 11:40:57;;;;;;;0.50;0.28;;;;;;;;;;5023926;28;20049;-67
2023/08/29 11:43:46;;;;;;;1.48;0.50;;;;;;;;;;5025150;28;20494;-65
2023/08/29 11:46:34;;;;;;;0.40;0.40;;;;;;;;;;5024307;28;20045;-66
2023/08/29 11:49:13;;;;;;;0.73;0.47;;;;;;;;;;5022661;28;20060;-65
2023/08/29 11:51:42;;;;;;;0.63;0.55;;;;;;;;;;5024873;28;20159;-66
2023/08/29 11:54:29;;;;;;;0.93;0.50;;;;;;;;;;5021539;28;20763;-65
2023/08/29 11:56:58;;;;;;;0.50;0.50;;;;;;;;;;5025049;28;20053;-66
2023/08/29 11:59:26;;;;;;;0.85;0.70;;;;;;;;;;5021943;28;20142;-65
2023/08/29 12:01:55;;;;;;;0.57;0.57;;;;;;;;;;5023127;28;20093;-66
2023/08/29 12:04:26;;;;;;;0.40;0.40;;;;;;;;;;5024902;28;20041;-65
2023/08/29 12:07:05;;;;;;;0.60;0.50;;;;;;;;;;5024561;28;20042;-64
2023/08/29 12:09:34;;;;;;;0.70;0.50;;;;;;;;;;5022297;28;20457;-64
2023/08/29 12:12:02;;;;;;;0.93;0.68;;;;;;;;;;5026560;28;20402;-64
2023/08/29 12:14:31;;;;;;;0.80;0.50;;;;;;;;;;5024961;28;20049;-65
2023/08/29 12:16:59;;;;;;;0.93;0.60;;;;;;;;;;5025652;28;20081;-67
2023/08/29 12:19:35;;;;;;;0.93;0.68;;;;;;;;;;5024333;28;20088;-65
2023/08/29 12:22:03;;;;;;;0.60;0.50;;;;;;;;;;5019237;28;20521;-63
2023/08/29 12:24:32;;;;;;;0.45;0.40;;;;;;;;;;5020970;28;20052;-65
2023/08/29 12:27:00;;;;;;;0.77;0.52;;;;;;;;;;5025420;28;20041;-64
2023/08/29 12:29:32;;;;;;;0.77;0.52;;;;;;;;;;5025053;28;20045;-64
2023/08/29 12:32:00;;;;;;;2.33;0.80;;;;;;;;;;5025032;28;20053;-64
2023/08/29 12:34:31;;;;;;;2.03;0.55;;;;;;;;;;5020423;28;20088;-65
2023/08/29 12:36:59;;;;;;;0.57;0.50;;;;;;;;;;5022715;28;20568;-64
2023/08/29 12:39:27;;;;;;;0.40;0.40;;;;;;;;;;5021174;28;20597;-63
2023/08/29 12:41:56;;;;;;;1.88;0.47;;;;;;;;;;5023330;28;20049;-64
2023/08/29 12:44:24;;;;;;;0.52;0.22;;;;;;;;;;5019797;28;20334;-64
2023/08/29 12:46:52;;;;;;;0.43;0.40;;;;;;;;;;5023678;28;20100;-66
2023/08/29 12:49:21;;;;;;;0.43;0.35;;;;;;;;;;5024564;28;20041;-66
2023/08/29 12:51:51;;;;;;;0.45;0.40;;;;;;;;;;5021091;28;20107;-65
2023/08/29 12:54:19;;;;;;;0.60;0.50;;;;;;;;;;5024337;28;20107;-65
2023/08/29 12:56:48;;;;;;;0.52;0.40;;;;;;;;;;5027276;28;20057;-64
2023/08/29 12:59:16;;;;;;;0.77;0.40;;;;;;;;;;5024638;28;20088;-64
2023/08/29 13:01:44;;;;;;;0.90;0.63;;;;;;;;;;5017426;28;20100;-65
2023/08/29 13:04:13;;;;;;;0.43;0.40;;;;;;;;;;5024421;28;20052;-65
2023/08/29 13:06:42;;;;;;;0.40;0.40;;;;;;;;;;5024918;28;20045;-64
2023/08/29 13:09:14;;;;;;;0.40;0.40;;;;;;;;;;5024124;28;20045;-65
2023/08/29 13:12:03;;;;;;;0.50;0.40;;;;;;;;;;5020176;28;20037;-65
2023/08/29 13:14:31;;;;;;;0.38;0.38;;;;;;;;;;5021992;28;20072;-65
2023/08/29 13:17:06;;;;;;;;;;;;;;;;;;5024931;28;20056;-65
2023/08/29 13:19:35;;;;;;;1.67;0.40;;;;;;;;;;5025513;28;20259;-65
2023/08/29 13:22:04;;;;;;;1.13;0.50;;;;;;;;;;5023026;28;20042;-64
2023/08/29 13:24:33;;;;;;;0.77;0.50;;;;;;;;;;5021370;28;20354;-65
2023/08/29 13:27:02;;;;;;;0.95;0.50;;;;;;;;;;5020895;28;20396;-65
2023/08/29 13:29:31;;;;;;;0.93;0.50;;;;;;;;;;5023923;28;20049;-64
2023/08/29 13:32:00;;;;;;;0.63;0.50;;;;;;;;;;5022515;28;20435;-65
2023/08/29 13:34:28;;;;;;;0.47;0.47;;;;;;;;;;5024056;28;20118;-64
2023/08/29 13:36:57;;;;;;;0.40;0.40;;;;;;;;;;5024542;28;20103;-67
2023/08/29 13:39:25;;;;;;;1.60;0.50;;;;;;;;;;5020776;28;20059;-66
2023/08/29 13:41:55;;;;;;;0.73;0.52;;;;;;;;;;5022811;28;20060;-65
2023/08/29 13:44:23;;;;;;;0.77;0.60;;;;;;;;;;5023496;28;20053;-65
2023/08/29 13:46:52;;;;;;;2.85;0.65;;;;;;;;;;5022619;28;20103;-66
2023/08/29 13:49:20;;;;;;;2.15;0.55;;;;;;;;;;5025309;28;20532;-65
2023/08/29 13:51:49;;;;;;;0.73;0.60;;;;;;;;;;5021230;28;20049;-66
2023/08/29 13:54:18;;;;;;;0.68;0.40;;;;;;;;;;5021403;28;20053;-65
2023/08/29 13:56:47;;;;;;;0.60;0.50;;;;;;;;;;5023054;28;20060;-65
2023/08/29 13:59:17;;;;;;;1.13;0.70;;;;;;;;;;5021546;28;20037;-65
2023/08/29 14:01:45;;;;;;;0.60;0.60;;;;;;;;;;5022444;28;20357;-64
2023/08/29 14:04:14;;;;;;;0.90;0.70;;;;;;;;;;5026271;28;20095;-64
2023/08/29 14:06:43;;;;;;;1.02;0.73;;;;;;;;;;5020212;28;20045;-66
2023/08/29 14:09:11;;;;;;;1.02;0.50;;;;;;;;;;5016329;28;20061;-68
2023/08/29 14:11:40;;;;;;;0.95;0.85;;;;;;;;;;5023058;28;20330;-67
2023/08/29 14:14:08;;;;;;;1.10;0.77;;;;;;;;;;5020322;28;20128;-66
2023/08/29 14:16:38;;;;;;;1.05;0.90;;;;;;;;;;5024111;28;20526;-67
2023/08/29 14:19:10;;;;;;;3.13;0.98;;;;;;;;;;5017769;28;20136;-67
2023/08/29 14:21:38;;;;;;;4.75;1.50;;;;;;;;;;5021030;28;20053;-67
2023/08/29 14:24:07;;;;;;;0.88;0.70;;;;;;;;;;5023684;28;20049;-70
2023/08/29 14:26:36;;;;;;;1.00;0.73;;;;;;;;;;5022484;28;20045;-67
2023/08/29 14:29:06;;;;;;;1.40;0.60;;;;;;;;;;5024641;28;20111;-67
2023/08/29 14:31:35;;;;;;;0.68;0.60;;;;;;;;;;5021153;28;20088;-67
2023/08/29 14:34:05;;;;;;;1.05;0.50;;;;;;;;;;5025453;28;20495;-66
2023/08/29 14:36:34;;;;;;;0.70;0.50;;;;;;;;;;5024173;28;20057;-67
2023/08/29 14:39:02;;;;;;;0.60;0.50;;;;;;;;;;5024780;28;20045;-68
2023/08/29 14:41:31;;;;;;;0.80;0.70;;;;;;;;;;5027149;28;20405;-67
2023/08/29 14:43:59;;;;;;;0.98;0.65;;;;;;;;;;5024604;28;20037;-69
2023/08/29 14:46:27;;;;;;;1.08;0.73;;;;;;;;;;5022408;28;20110;-67
2023/08/29 14:48:56;;;;;;;1.17;0.60;;;;;;;;;;5020476;28;20064;-68
2023/08/29 14:51:26;;;;;;;0.82;0.80;;;;;;;;;;5022274;28;20053;-68
2023/08/29 14:53:56;;;;;;;2.55;0.93;;;;;;;;;;5024821;28;20141;-72
2023/08/29 14:56:25;;;;;;;0.77;0.55;;;;;;;;;;5021867;28;20509;-68
2023/08/29 14:58:54;;;;;;;1.67;0.77;;;;;;;;;;5021593;28;20060;-69